createdAt,value
2018-02-05T00:01:33.229Z,-2.30
2018-02-05T00:04:00.771Z,-2.30
2018-02-05T00:06:29.061Z,-2.40
2018-02-05T00:08:56.579Z,-2.40
2018-02-05T00:11:24.087Z,-2.40
2018-02-05T00:13:51.617Z,-2.40
2018-02-05T00:16:19.125Z,-2.40
2018-02-05T00:18:46.643Z,-2.40
2018-02-05T00:21:14.169Z,-2.40
2018-02-05T00:23:41.675Z,-2.40
2018-02-05T00:26:09.195Z,-2.40
2018-02-05T00:28:36.764Z,-2.40
2018-02-05T00:31:04.278Z,-2.40
2018-02-05T00:33:31.801Z,-2.40
2018-02-05T00:35:59.347Z,-2.50
2018-02-05T00:38:26.853Z,-2.40
2018-02-05T00:40:54.363Z,-2.50
2018-02-05T00:43:21.891Z,-2.50
2018-02-05T00:45:49.406Z,-2.50
2018-02-05T00:48:16.916Z,-2.50
2018-02-05T00:50:44.451Z,-2.50
2018-02-05T00:53:11.979Z,-2.50
2018-02-05T00:55:39.493Z,-2.60
2018-02-05T00:58:07.013Z,-2.60
2018-02-05T01:00:34.518Z,-2.60
2018-02-05T01:03:02.039Z,-2.60
2018-02-05T01:05:29.579Z,-2.70
2018-02-05T01:07:57.087Z,-2.70
2018-02-05T01:10:24.594Z,-2.70
2018-02-05T01:12:52.133Z,-2.80
2018-02-05T01:15:19.644Z,-2.80
2018-02-05T01:17:47.154Z,-2.80
2018-02-05T01:20:15.443Z,-2.90
2018-02-05T01:22:43.012Z,-2.90
2018-02-05T01:25:10.495Z,-2.90
2018-02-05T01:27:38.019Z,-3.00
2018-02-05T01:30:05.541Z,-3.00
2018-02-05T01:32:33.047Z,-3.00
2018-02-05T01:35:00.559Z,-3.00
2018-02-05T01:37:28.088Z,-3.00
2018-02-05T01:39:55.625Z,-3.00
2018-02-05T01:42:23.143Z,-3.00
2018-02-05T01:44:50.645Z,-3.10
2018-02-05T01:47:18.161Z,-3.00
2018-02-05T01:49:45.681Z,-3.10
2018-02-05T01:52:13.183Z,-3.10
2018-02-05T01:54:40.686Z,-3.10
2018-02-05T01:57:08.235Z,-3.10
2018-02-05T01:59:35.738Z,-3.10
2018-02-05T02:02:03.247Z,-3.10
2018-02-05T02:04:30.756Z,-3.10
2018-02-05T02:06:58.263Z,-3.20
2018-02-05T02:09:25.789Z,-3.20
2018-02-05T02:11:53.322Z,-3.20
2018-02-05T02:14:20.838Z,-3.20
2018-02-05T02:16:48.353Z,-3.20
2018-02-05T02:19:15.879Z,-3.20
2018-02-05T02:21:43.383Z,-3.30
2018-02-05T02:24:10.891Z,-3.30
2018-02-05T02:26:38.401Z,-3.30
2018-02-05T02:29:05.913Z,-3.30
2018-02-05T02:31:33.419Z,-3.40
2018-02-05T02:34:00.953Z,-3.40
2018-02-05T02:36:28.454Z,-3.40
2018-02-05T02:38:56.754Z,-3.40
2018-02-05T02:41:24.277Z,-3.50
2018-02-05T02:43:51.783Z,-3.40
2018-02-05T02:46:19.291Z,-3.50
2018-02-05T02:48:46.816Z,-3.50
2018-02-05T02:51:14.339Z,-3.40
2018-02-05T02:53:41.851Z,-3.40
2018-02-05T02:56:09.375Z,-3.40
2018-02-05T02:58:36.883Z,-3.40
2018-02-05T03:01:04.407Z,-3.50
2018-02-05T03:03:31.933Z,-3.50
2018-02-05T03:05:59.462Z,-3.50
2018-02-05T03:08:26.966Z,-3.50
2018-02-05T03:10:54.497Z,-3.50
2018-02-05T03:13:22.015Z,-3.50
2018-02-05T03:15:49.541Z,-3.50
2018-02-05T03:18:17.067Z,-3.50
2018-02-05T03:20:45.342Z,-3.60
2018-02-05T03:23:13.632Z,-3.60
2018-02-05T03:25:41.161Z,-3.70
2018-02-05T03:28:08.671Z,-3.60
2018-02-05T03:30:36.163Z,-3.60
2018-02-05T03:33:03.677Z,-3.60
2018-02-05T03:35:31.191Z,-3.60
2018-02-05T03:37:58.718Z,-3.60
2018-02-05T03:40:26.233Z,-3.60
2018-02-05T03:42:54.509Z,-3.70
2018-02-05T03:45:22.801Z,-3.70
2018-02-05T03:47:50.315Z,-3.80
2018-02-05T03:50:17.823Z,-3.70
2018-02-05T03:52:45.323Z,-3.80
2018-02-05T03:55:12.849Z,-3.80
2018-02-05T03:57:40.355Z,-3.80
2018-02-05T04:00:07.859Z,-3.80
2018-02-05T04:02:35.435Z,-3.80
2018-02-05T04:05:03.660Z,-3.80
2018-02-05T04:07:31.172Z,-3.90
2018-02-05T04:09:58.689Z,-3.90
2018-02-05T04:12:26.200Z,-3.90
2018-02-05T04:14:53.719Z,-3.90
2018-02-05T04:17:21.237Z,-3.90
2018-02-05T04:19:48.737Z,-3.90
2018-02-05T04:22:16.287Z,-4.00
2018-02-05T04:24:44.596Z,-3.90
2018-02-05T04:27:12.109Z,-4.00
2018-02-05T04:29:40.374Z,-3.90
2018-02-05T04:32:07.889Z,-4.00
2018-02-05T04:34:35.398Z,-3.90
2018-02-05T04:37:02.896Z,-3.90
2018-02-05T04:39:30.415Z,-3.80
2018-02-05T04:41:57.929Z,-3.80
2018-02-05T04:44:25.438Z,-3.90
2018-02-05T04:46:53.726Z,-3.90
2018-02-05T04:49:21.992Z,-3.90
2018-02-05T04:51:50.259Z,-3.90
2018-02-05T04:54:17.779Z,-4.00
2018-02-05T04:56:45.288Z,-3.90
2018-02-05T04:59:12.795Z,-3.90
2018-02-05T05:01:40.322Z,-3.90
2018-02-05T05:04:07.844Z,-3.90
2018-02-05T05:06:35.350Z,-3.90
2018-02-05T05:09:02.932Z,-3.90
2018-02-05T05:11:30.441Z,-3.90
2018-02-05T05:13:57.951Z,-3.90
2018-02-05T05:16:25.473Z,-3.90
2018-02-05T05:18:53.003Z,-3.90
2018-02-05T05:21:20.502Z,-3.90
2018-02-05T05:23:48.039Z,-3.90
2018-02-05T05:26:16.340Z,-3.90
2018-02-05T05:28:43.876Z,-3.90
2018-02-05T05:31:11.421Z,-3.90
2018-02-05T05:33:39.736Z,-3.80
2018-02-05T05:36:07.296Z,-3.90
2018-02-05T05:38:34.846Z,-3.90
2018-02-05T05:41:02.384Z,-3.80
2018-02-05T05:43:29.920Z,-3.80
2018-02-05T05:45:57.454Z,-3.80
2018-02-05T05:48:24.965Z,-3.80
2018-02-05T05:50:53.258Z,-3.80
2018-02-05T05:53:20.772Z,-3.90
2018-02-05T05:55:48.304Z,-3.90
2018-02-05T05:58:15.803Z,-3.90
2018-02-05T06:00:43.708Z,-3.90
2018-02-05T06:03:11.207Z,-3.90
2018-02-05T06:05:38.725Z,-3.90
2018-02-05T06:08:06.241Z,-3.90
2018-02-05T06:10:33.767Z,-3.90
2018-02-05T06:13:01.276Z,-3.90
2018-02-05T06:15:29.560Z,-3.90
2018-02-05T06:17:57.828Z,-3.90
2018-02-05T06:20:26.105Z,-3.90
2018-02-05T06:22:54.399Z,-3.90
2018-02-05T06:25:21.920Z,-4.00
2018-02-05T06:27:49.414Z,-3.90
2018-02-05T06:30:17.704Z,-3.90
2018-02-05T06:32:45.212Z,-4.00
2018-02-05T06:35:12.738Z,-3.90
2018-02-05T06:37:40.254Z,-4.00
2018-02-05T06:40:08.524Z,-4.00
2018-02-05T06:42:36.800Z,-4.00
2018-02-05T06:45:04.351Z,-4.10
2018-02-05T06:47:32.660Z,-4.00
2018-02-05T06:50:00.186Z,-4.00
2018-02-05T06:52:39.526Z,-4.00
2018-02-05T06:58:06.246Z,-4.00
2018-02-05T07:00:34.051Z,-3.90
2018-02-05T07:03:01.720Z,-3.90
2018-02-05T07:05:29.338Z,-3.90
2018-02-05T07:07:56.996Z,-3.90
2018-02-05T07:10:24.660Z,-3.90
2018-02-05T07:12:52.209Z,-3.80
2018-02-05T07:15:19.766Z,-3.80
2018-02-05T07:17:47.306Z,-3.70
2018-02-05T07:20:14.870Z,-3.70
2018-02-05T07:22:42.412Z,-3.60
2018-02-05T07:25:09.953Z,-3.60
2018-02-05T07:27:38.260Z,-3.50
2018-02-05T07:30:05.876Z,-3.50
2018-02-05T07:32:33.407Z,-3.40
2018-02-05T07:35:00.958Z,-3.40
2018-02-05T07:37:28.476Z,-3.30
2018-02-05T07:39:56.790Z,-3.20
2018-02-05T07:42:24.334Z,-3.30
2018-02-05T07:44:51.862Z,-3.10
2018-02-05T07:47:20.166Z,-3.00
2018-02-05T07:49:47.724Z,-3.00
2018-02-05T07:52:15.276Z,-2.90
2018-02-05T07:54:42.802Z,-2.90
2018-02-05T07:57:10.376Z,-2.80
2018-02-05T07:59:38.656Z,-2.60
2018-02-05T08:02:06.996Z,-2.60
2018-02-05T08:04:34.494Z,-2.60
2018-02-05T08:07:01.996Z,-2.50
2018-02-05T08:09:29.516Z,-2.40
2018-02-05T08:11:57.824Z,-2.20
2018-02-05T08:14:25.352Z,-2.20
2018-02-05T08:16:52.884Z,-2.00
2018-02-05T08:19:20.423Z,-1.90
2018-02-05T08:21:47.944Z,-1.90
2018-02-05T08:24:15.467Z,-1.80
2018-02-05T08:26:43.005Z,-1.70
2018-02-05T08:29:10.524Z,-1.70
2018-02-05T08:31:38.046Z,-1.60
2018-02-05T08:34:06.344Z,-1.40
2018-02-05T08:36:33.860Z,-1.50
2018-02-05T08:39:01.385Z,-1.40
2018-02-05T08:41:28.922Z,-1.30
2018-02-05T08:43:56.458Z,-1.20
2018-02-05T08:46:23.964Z,-1.20
2018-02-05T08:48:51.480Z,-1.10
2018-02-05T08:51:18.994Z,-1.10
2018-02-05T08:53:46.512Z,-1.10
2018-02-05T08:56:14.810Z,-0.90
2018-02-05T08:58:42.328Z,-1.00
2018-02-05T09:01:09.856Z,-0.90
2018-02-05T09:03:37.388Z,-0.90
2018-02-05T09:06:04.908Z,-0.80
2018-02-05T09:08:32.417Z,-0.70
2018-02-05T09:10:59.936Z,-0.70
2018-02-05T09:13:27.438Z,-0.60
2018-02-05T09:15:54.948Z,-0.60
2018-02-05T09:18:23.250Z,-0.50
2018-02-05T09:20:50.905Z,-0.50
2018-02-05T09:23:18.420Z,-0.40
2018-02-05T09:25:45.960Z,-0.40
2018-02-05T09:28:13.479Z,-0.30
2018-02-05T09:30:41.020Z,-0.30
2018-02-05T09:33:08.537Z,-0.30
2018-02-05T09:35:36.064Z,-0.30
2018-02-05T09:38:03.612Z,-0.20
2018-02-05T09:40:31.892Z,-0.20
2018-02-05T09:42:59.420Z,-0.20
2018-02-05T09:45:26.964Z,-0.10
2018-02-05T09:47:54.487Z,-0.10
2018-02-05T09:50:22.039Z,0.00
2018-02-05T09:52:49.605Z,0.10
2018-02-05T09:55:17.114Z,0.10
2018-02-05T09:57:44.624Z,0.20
2018-02-05T10:00:12.164Z,0.20
2018-02-05T10:02:39.676Z,0.30
2018-02-05T10:05:07.173Z,0.30
2018-02-05T10:07:35.460Z,0.40
2018-02-05T10:10:03.000Z,0.40
2018-02-05T10:12:30.509Z,0.50
2018-02-05T10:14:58.048Z,0.50
2018-02-05T10:17:25.560Z,0.60
2018-02-05T10:19:53.077Z,0.60
2018-02-05T10:22:20.596Z,0.60
2018-02-05T10:24:48.897Z,0.70
2018-02-05T10:27:16.416Z,0.70
2018-02-05T10:29:43.916Z,0.80
2018-02-05T10:32:11.432Z,0.80
2018-02-05T10:34:38.940Z,0.90
2018-02-05T10:37:06.450Z,0.90
2018-02-05T10:39:34.000Z,0.90
2018-02-05T10:42:01.516Z,1.00
2018-02-05T10:44:29.016Z,1.00
2018-02-05T10:46:56.540Z,1.00
2018-02-05T10:49:24.064Z,1.10
2018-02-05T10:51:52.336Z,1.10
2018-02-05T10:54:20.620Z,1.10
2018-02-05T10:56:48.890Z,1.20
2018-02-05T10:59:17.192Z,1.20
2018-02-05T11:01:44.711Z,1.20
2018-02-05T11:04:12.254Z,1.30
2018-02-05T11:06:39.773Z,1.30
2018-02-05T11:09:07.315Z,1.40
2018-02-05T11:11:34.832Z,1.40
2018-02-05T11:14:02.366Z,1.40
2018-02-05T11:16:29.880Z,1.50
2018-02-05T11:18:57.380Z,1.50
2018-02-05T11:21:24.884Z,1.50
2018-02-05T11:23:52.396Z,1.60
2018-02-05T11:26:19.892Z,1.60
2018-02-05T11:28:47.397Z,1.70
2018-02-05T11:31:14.932Z,1.70
2018-02-05T11:33:43.201Z,1.90
2018-02-05T11:36:11.489Z,2.00
2018-02-05T11:38:39.767Z,2.10
2018-02-05T11:41:08.031Z,2.20
2018-02-05T11:43:36.300Z,2.30
2018-02-05T11:46:03.828Z,2.20
2018-02-05T11:48:31.346Z,2.20
2018-02-05T11:50:58.851Z,2.20
2018-02-05T11:53:26.416Z,2.20
2018-02-05T11:55:53.914Z,2.30
2018-02-05T11:58:21.416Z,2.30
2018-02-05T12:00:48.943Z,2.40
2018-02-05T12:03:16.456Z,2.40
2018-02-05T12:05:43.947Z,2.50
2018-02-05T12:08:11.466Z,2.50
2018-02-05T12:10:38.964Z,2.60
2018-02-05T12:13:07.240Z,2.70
2018-02-05T12:15:35.512Z,2.90
2018-02-05T12:18:03.780Z,3.00
2018-02-05T12:20:32.064Z,3.10
2018-02-05T12:23:00.483Z,3.10
2018-02-05T12:25:28.002Z,3.00
2018-02-05T12:27:56.272Z,3.10
2018-02-05T12:30:24.556Z,3.20
2018-02-05T12:32:52.834Z,3.20
2018-02-05T12:35:21.104Z,3.20
2018-02-05T12:37:49.398Z,3.30
2018-02-05T12:40:16.892Z,3.30
2018-02-05T12:42:44.404Z,3.40
2018-02-05T12:45:11.936Z,3.30
2018-02-05T12:47:39.432Z,3.30
2018-02-05T12:50:06.936Z,3.10
2018-02-05T12:52:34.444Z,3.20
2018-02-05T12:55:02.716Z,3.10
2018-02-05T12:57:30.982Z,3.10
2018-02-05T13:00:10.380Z,3.00
2018-02-05T13:02:38.460Z,3.10
2018-02-05T13:05:20.852Z,3.20
2018-02-05T13:07:48.372Z,3.20
2018-02-05T13:10:15.883Z,3.20
2018-02-05T13:12:43.400Z,3.20
2018-02-05T13:15:10.892Z,3.20
2018-02-05T13:17:38.396Z,3.10
2018-02-05T13:20:05.926Z,3.00
2018-02-05T13:22:33.421Z,3.00
2018-02-05T13:25:00.948Z,3.00
2018-02-05T13:27:28.466Z,3.00
2018-02-05T13:29:55.960Z,3.00
2018-02-05T13:32:23.451Z,3.00
2018-02-05T13:34:51.724Z,3.00
2018-02-05T13:37:19.236Z,2.90
2018-02-05T13:39:46.755Z,3.00
2018-02-05T13:42:14.264Z,2.90
2018-02-05T13:44:41.780Z,2.90
2018-02-05T13:47:09.288Z,2.90
2018-02-05T13:49:36.811Z,2.80
2018-02-05T13:52:04.312Z,2.80
2018-02-05T13:54:31.820Z,2.80
2018-02-05T13:56:59.324Z,2.80
2018-02-05T13:59:26.824Z,2.70
2018-02-05T14:01:54.346Z,2.70
2018-02-05T14:04:21.878Z,2.70
2018-02-05T14:06:49.379Z,2.70
2018-02-05T14:09:17.676Z,2.70
2018-02-05T14:11:45.196Z,2.60
2018-02-05T14:14:12.708Z,2.70
2018-02-05T14:16:40.216Z,2.70
2018-02-05T14:19:07.757Z,2.60
2018-02-05T14:21:35.270Z,2.60
2018-02-05T14:24:02.783Z,2.60
2018-02-05T14:26:30.292Z,2.60
2018-02-05T14:28:57.796Z,2.50
2018-02-05T14:31:25.300Z,2.50
2018-02-05T14:33:52.839Z,2.50
2018-02-05T14:36:20.339Z,2.50
2018-02-05T14:38:47.844Z,2.50
2018-02-05T14:41:15.386Z,2.50
2018-02-05T14:43:42.894Z,2.50
2018-02-05T14:46:10.404Z,2.50
2018-02-05T14:48:37.936Z,2.50
2018-02-05T14:51:05.447Z,2.50
2018-02-05T14:53:32.988Z,2.50
2018-02-05T14:56:00.533Z,2.50
2018-02-05T14:58:28.046Z,2.50
2018-02-05T15:00:55.543Z,2.50
2018-02-05T15:03:23.068Z,2.40
2018-02-05T15:05:50.572Z,2.30
2018-02-05T15:08:18.083Z,2.30
2018-02-05T15:10:45.605Z,2.30
2018-02-05T15:13:13.120Z,2.30
2018-02-05T15:15:40.636Z,2.30
2018-02-05T15:18:08.916Z,2.30
2018-02-05T15:20:37.203Z,2.20
2018-02-05T15:23:04.708Z,2.20
2018-02-05T15:25:32.242Z,2.20
2018-02-05T15:27:59.749Z,2.20
2018-02-05T15:30:27.266Z,2.10
2018-02-05T15:32:54.791Z,2.10
2018-02-05T15:35:22.305Z,2.10
2018-02-05T15:37:49.821Z,2.10
2018-02-05T15:40:17.338Z,2.00
2018-02-05T15:42:44.867Z,2.00
2018-02-05T15:45:12.368Z,2.00
2018-02-05T15:47:39.886Z,1.90
2018-02-05T15:50:07.436Z,1.90
2018-02-05T15:52:35.699Z,1.90
2018-02-05T15:55:03.988Z,1.90
2018-02-05T15:57:31.504Z,1.80
2018-02-05T15:59:59.775Z,1.80
2018-02-05T16:02:27.325Z,1.80
2018-02-05T16:04:54.840Z,1.80
2018-02-05T16:07:22.343Z,1.80
2018-02-05T16:09:49.875Z,1.80
2018-02-05T16:12:17.387Z,1.70
2018-02-05T16:14:44.913Z,1.70
2018-02-05T16:17:12.425Z,1.70
2018-02-05T16:19:39.933Z,1.70
2018-02-05T16:22:07.480Z,1.60
2018-02-05T16:24:35.010Z,1.60
2018-02-05T16:27:02.544Z,1.60
2018-02-05T16:29:30.064Z,1.60
2018-02-05T16:31:57.575Z,1.50
2018-02-05T16:34:25.105Z,1.50
2018-02-05T16:36:53.392Z,1.50
2018-02-05T16:39:20.972Z,1.40
2018-02-05T16:41:48.499Z,1.40
2018-02-05T16:44:16.794Z,1.40
2018-02-05T16:46:44.311Z,1.40
2018-02-05T16:49:11.834Z,1.40
2018-02-05T16:51:39.387Z,1.40
2018-02-05T16:54:06.922Z,1.40
2018-02-05T16:56:34.438Z,1.40
2018-02-05T16:59:01.942Z,1.30
2018-02-05T17:01:29.471Z,1.30
2018-02-05T17:03:56.976Z,1.30
2018-02-05T17:06:24.501Z,1.30
2018-02-05T17:08:52.855Z,1.30
2018-02-05T17:11:20.391Z,1.20
2018-02-05T17:13:47.961Z,1.30
2018-02-05T17:16:15.489Z,1.30
2018-02-05T17:18:43.001Z,1.20
2018-02-05T17:21:10.538Z,1.20
2018-02-05T17:23:38.091Z,1.20
2018-02-05T17:26:05.612Z,1.20
2018-02-05T17:28:33.168Z,1.20
2018-02-05T17:31:00.695Z,1.20
2018-02-05T17:33:28.211Z,1.10
2018-02-05T17:35:55.727Z,1.10
2018-02-05T17:38:23.341Z,1.10
2018-02-05T17:40:50.901Z,1.10
2018-02-05T17:43:19.202Z,1.10
2018-02-05T17:45:46.727Z,1.10
2018-02-05T17:48:14.255Z,1.10
2018-02-05T17:50:41.805Z,1.10
2018-02-05T17:53:10.107Z,1.00
2018-02-05T17:55:37.619Z,1.00
2018-02-05T17:58:05.132Z,1.00
2018-02-05T18:00:32.761Z,1.00
2018-02-05T18:03:01.077Z,1.00
2018-02-05T18:05:28.609Z,1.00
2018-02-05T18:07:56.151Z,1.00
2018-02-05T18:10:23.674Z,1.00
2018-02-05T18:12:51.196Z,1.00
2018-02-05T18:15:18.723Z,1.00
2018-02-05T18:17:46.249Z,1.00
2018-02-05T18:20:13.807Z,1.00
2018-02-05T18:22:41.335Z,0.90
2018-02-05T18:25:08.859Z,0.90
2018-02-05T18:27:36.397Z,0.90
2018-02-05T18:30:03.908Z,0.90
2018-02-05T18:32:31.421Z,0.90
2018-02-05T18:34:59.002Z,0.90
2018-02-05T18:37:26.557Z,0.90
2018-02-05T18:39:54.835Z,0.90
2018-02-05T18:42:23.120Z,0.90
2018-02-05T18:44:51.417Z,0.90
2018-02-05T18:47:18.947Z,0.80
2018-02-05T18:49:46.491Z,0.90
2018-02-05T18:52:14.055Z,0.90
2018-02-05T18:54:41.579Z,0.90
2018-02-05T18:57:09.095Z,0.90
2018-02-05T18:59:36.639Z,0.90
2018-02-05T19:02:16.000Z,0.90
2018-02-05T19:04:43.530Z,0.80
2018-02-05T19:07:11.819Z,0.90
2018-02-05T19:09:40.112Z,0.90
2018-02-05T19:12:07.629Z,0.80
2018-02-05T19:14:35.136Z,0.80
2018-02-05T19:17:02.657Z,0.80
2018-02-05T19:19:30.184Z,0.80
2018-02-05T19:21:57.735Z,0.80
2018-02-05T19:24:25.281Z,0.80
2018-02-05T19:26:53.571Z,0.80
2018-02-05T19:29:21.108Z,0.70
2018-02-05T19:31:48.629Z,0.70
2018-02-05T19:34:16.205Z,0.80
2018-02-05T19:36:43.725Z,0.70
2018-02-05T19:39:11.254Z,0.70
2018-02-05T19:41:38.799Z,0.70
2018-02-05T19:44:06.329Z,0.70
2018-02-05T19:46:33.839Z,0.70
2018-02-05T19:49:01.385Z,0.70
2018-02-05T19:51:28.894Z,0.70
2018-02-05T19:53:56.407Z,0.70
2018-02-05T19:56:23.942Z,0.70
2018-02-05T19:58:51.443Z,0.70
2018-02-05T20:01:18.961Z,0.70
2018-02-05T20:03:46.491Z,0.70
2018-02-05T20:06:14.015Z,0.70
2018-02-05T20:08:41.519Z,0.70
2018-02-05T20:11:09.057Z,0.70
2018-02-05T20:13:36.559Z,0.70
2018-02-05T20:16:04.080Z,0.60
2018-02-05T20:18:31.604Z,0.60
2018-02-05T20:20:59.178Z,0.60
2018-02-05T20:23:26.664Z,0.60
2018-02-05T20:25:54.203Z,0.60
2018-02-05T20:28:21.733Z,0.60
2018-02-05T20:30:49.247Z,0.60
2018-02-05T20:33:17.543Z,0.60
2018-02-05T20:35:45.843Z,0.60
2018-02-05T20:38:13.371Z,0.60
2018-02-05T20:40:40.944Z,0.60
2018-02-05T20:43:08.480Z,0.60
2018-02-05T20:45:36.001Z,0.60
2018-02-05T20:48:03.507Z,0.60
2018-02-05T20:50:31.785Z,0.60
2018-02-05T20:53:00.064Z,0.60
2018-02-05T20:55:28.359Z,0.50
2018-02-05T20:57:55.861Z,0.50
2018-02-05T21:00:23.371Z,0.50
2018-02-05T21:02:50.891Z,0.50
2018-02-05T21:05:18.409Z,0.50
2018-02-05T21:07:45.923Z,0.50
2018-02-05T21:10:14.208Z,0.50
2018-02-05T21:12:41.732Z,0.50
2018-02-05T21:15:09.235Z,0.50
2018-02-05T21:17:36.766Z,0.50
2018-02-05T21:20:04.263Z,0.50
2018-02-05T21:22:31.774Z,0.40
2018-02-05T21:24:59.294Z,0.40
2018-02-05T21:27:26.805Z,0.40
2018-02-05T21:29:55.077Z,0.40
2018-02-05T21:32:23.361Z,0.40
2018-02-05T21:34:50.864Z,0.40
2018-02-05T21:37:18.375Z,0.40
2018-02-05T21:39:46.682Z,0.40
2018-02-05T21:42:14.175Z,0.40
2018-02-05T21:44:41.675Z,0.40
2018-02-05T21:47:09.951Z,0.40
2018-02-05T21:49:37.467Z,0.40
2018-02-05T21:52:04.959Z,0.40
2018-02-05T21:54:32.487Z,0.40
2018-02-05T21:56:59.993Z,0.40
2018-02-05T21:59:27.507Z,0.40
2018-02-05T22:01:55.025Z,0.40
2018-02-05T22:04:22.543Z,0.40
2018-02-05T22:06:50.059Z,0.40
2018-02-05T22:09:17.591Z,0.30
2018-02-05T22:11:45.898Z,0.30
2018-02-05T22:14:13.416Z,0.30
2018-02-05T22:16:40.931Z,0.30
2018-02-05T22:19:08.451Z,0.30
2018-02-05T22:21:35.961Z,0.30
2018-02-05T22:24:03.467Z,0.30
2018-02-05T22:26:30.990Z,0.30
2018-02-05T22:28:58.495Z,0.30
2018-02-05T22:31:26.009Z,0.30
2018-02-05T22:33:53.519Z,0.30
2018-02-05T22:36:21.047Z,0.30
2018-02-05T22:38:48.572Z,0.30
2018-02-05T22:41:16.075Z,0.30
2018-02-05T22:43:43.601Z,0.30
2018-02-05T22:46:11.133Z,0.30
2018-02-05T22:48:38.647Z,0.30
2018-02-05T22:51:06.169Z,0.20
2018-02-05T22:53:33.691Z,0.20
2018-02-05T22:56:01.201Z,0.20
2018-02-05T22:58:28.717Z,0.20
2018-02-05T23:00:56.263Z,0.20
2018-02-05T23:03:23.776Z,0.20
2018-02-05T23:05:51.275Z,0.20
2018-02-05T23:08:18.803Z,0.30
2018-02-05T23:10:47.083Z,0.20
2018-02-05T23:13:15.355Z,0.20
2018-02-05T23:15:43.650Z,0.30
2018-02-05T23:18:11.171Z,0.20
2018-02-05T23:20:38.683Z,0.30
2018-02-05T23:23:06.218Z,0.20
2018-02-05T23:25:34.495Z,0.20
2018-02-05T23:28:02.041Z,0.20
2018-02-05T23:30:29.555Z,0.20
2018-02-05T23:32:57.067Z,0.30
2018-02-05T23:35:25.343Z,0.20
2018-02-05T23:37:53.615Z,0.20
2018-02-05T23:40:21.885Z,0.20
2018-02-05T23:42:49.409Z,0.20
2018-02-05T23:45:16.945Z,0.20
2018-02-05T23:47:44.467Z,0.20
2018-02-05T23:50:12.741Z,0.20
2018-02-05T23:52:40.249Z,0.20
2018-02-05T23:55:07.767Z,0.20
2018-02-05T23:57:36.043Z,0.20
